Portada
METAR-TAF:

METAR-TAF

Aeroports :

Greenwood, Mississipí, Estats Units d'Amèrica

latitud: 33-29-33N, longitud: 090-05-01W, altitud: 47 m

Observació

L'informe es va fer fa 1 hora i 3 minuts, a les 22:53 UTC
Vent 4 kt amb direcció variable
Temperatura 29°C
Humitat 52%
Pressió 1017 hPa
Visibilitat: 16.1 km
Escasses núvols a una alçada de 4600 ft

METAR: KGWO 292253Z AUTO VRB04KT 10SM FEW046 29/18 A3002 RMK AO2 SLP164 T02940183

Hora: 18:56 (23:56 UTC)

Pronòstic

L'informe es va fer fa 36 minuts, a les 23:20 UTC
Pronòstic vàlid del 30 a les 00 UTC al 30 a les 24 UTC
Vent 4 kt del Nord
Visibilitat: 10 km
Núvols disperses a una alçada de 4500 ft

TAF: KGWO 292320Z 3000/3024 36004KT P6SM SCT045

Observacions i pronòstics meteorològics de més de 4000 aeroports (METAR i TAF).

Les estacions disponibles són els punts grocs i vermells al mapa.

Posi el ratolí al punt desitjat per veure el nom de l'estació.

Feu clic per veure les observacions i els pronòstics meteorològics.

Per canviar el mapa: feu clic els botons verds amb una creu de color negre per apropar; al botó verd amb un guió per allunyar la imatge; o en les fletxes verdes per a mapes adjacents.


METAR-TAF: